Home > Products > Valid Products > TAF

000
FTUS44 KFWD 010525
TAFACT
TAF
KACT 010525Z 0106/0206 16010KT P6SM FEW070 SCT300=



000
FTUS44 KFWD 010525
TAFDFW
TAF
KDFW 010525Z 0106/0212 16010KT P6SM FEW070 SCT300=



000
FTUS44 KFWD 010525
TAFFTW
TAF
KFTW 010525Z 0106/0206 16010KT P6SM FEW070 SCT300=



000
FTUS44 KFWD 010304 AAA
TAFFTW
TAF AMD
KFTW 010304Z 0103/0124 16010KT P6SM FEW070 SCT300=



000
FTUS44 KFWD 010304 AAA
TAFDFW
TAF AMD
KDFW 010304Z 0103/0206 16010KT P6SM FEW070 SCT300=



000
FTUS44 KFWD 010304 AAA
TAFACT
TAF AMD
KACT 010304Z 0103/0124 16010KT P6SM FEW070 SCT300=



000
FTUS44 KFWD 010304 AAA
TAFDFW
TAF AMD
KDFW 010304Z 0103/0206 16010KT P6SM FEW070 SCT300=



000
FTUS44 KFWD 010304 AAA
TAFACT
TAF AMD
KACT 010304Z 0103/0124 16010KT P6SM FEW070 SCT300=



000
FTUS44 KFWD 010304 AAA
TAFFTW
TAF AMD
KFTW 010304Z 0103/0124 16010KT P6SM FEW070 SCT300=



000
FTUS44 KFWD 312320
TAFACT
TAF
KACT 312320Z 0100/0124 16010KT P6SM FEW070 SCT300=



000
FTUS44 KFWD 312320
TAFDFW
TAF
KDFW 312320Z 0100/0206 16010KT P6SM FEW070 SCT300=



000
FTUS44 KFWD 312320
TAFFTW
TAF
KFTW 312320Z 0100/0124 16010KT P6SM FEW070 SCT300=



000
FTUS44 KFWD 312050 AAA
TAFDFW
TAF AMD
KDFW 312050Z 3120/0124 14011KT P6SM FEW070 SCT300
     FM011200 19008KT P6SM FEW100 SCT300=



000
FTUS44 KFWD 312050 AAA
TAFFTW
TAF AMD
KFTW 312050Z 3120/0118 14011KT P6SM FEW070 SCT300
     FM011200 19008KT P6SM FEW100 SCT300=



000
FTUS44 KFWD 312050 AAA
TAFACT
TAF AMD
KACT 312050Z 3120/0118 16009KT P6SM SCT050 SCT300
     FM010900 18007KT P6SM SCT020 SCT150
      TEMPO 0113/0115 BKN020=



000
FTUS44 KFWD 312050 AAA
TAFFTW
TAF AMD
KFTW 312050Z 3120/0118 14011KT P6SM FEW070 SCT300
     FM011200 19008KT P6SM FEW100 SCT300=



000
FTUS44 KFWD 312050 AAA
TAFDFW
TAF AMD
KDFW 312050Z 3120/0124 14011KT P6SM FEW070 SCT300
     FM011200 19008KT P6SM FEW100 SCT300=



000
FTUS44 KFWD 312050 AAA
TAFACT
TAF AMD
KACT 312050Z 3120/0118 16009KT P6SM SCT050 SCT300
     FM010900 18007KT P6SM SCT020 SCT150
      TEMPO 0113/0115 BKN020=



000
FTUS44 KFWD 311734
TAFACT
TAF
KACT 311734Z 3118/0118 16008KT P6SM SCT060 SCT300
     FM010900 18007KT P6SM SCT020 SCT150
      TEMPO 0113/0115 BKN020=



000
FTUS44 KFWD 311734
TAFFTW
TAF
KFTW 311734Z 3118/0118 15007KT P6SM SCT060
     FM011200 19008KT P6SM FEW080 SCT120=



000
FTUS44 KFWD 311734
TAFDFW
TAF
KDFW 311734Z 3118/0124 15007KT P6SM SCT060
     FM011200 19008KT P6SM FEW080 SCT120=



000
FTUS44 KFWD 311507 AAA
TAFDFW
TAF AMD
KDFW 311507Z 3115/0118 18008KT P6SM FEW080=



000
FTUS44 KFWD 311507 AAA
TAFACT
TAF AMD
KACT 311507Z 3115/0112 22006KT P6SM SCT300
     FM311900 17008KT P6SM SCT060 SCT150=



000
FTUS44 KFWD 311507 AAA
TAFFTW
TAF AMD
KFTW 311507Z 3115/0112 18008KT P6SM FEW080=



000
FTUS44 KFWD 311507 AAA
TAFFTW
TAF AMD
KFTW 311507Z 3115/0112 18008KT P6SM FEW080=



000
FTUS44 KFWD 311507 AAA
TAFACT
TAF AMD
KACT 311507Z 3115/0112 22006KT P6SM SCT300
     FM311900 17008KT P6SM SCT060 SCT150=



000
FTUS44 KFWD 311507 AAA
TAFDFW
TAF AMD
KDFW 311507Z 3115/0118 18008KT P6SM FEW080=



000
FTUS44 KFWD 311134
TAFFTW
TAF
KFTW 311134Z 3112/0112 18008KT P6SM SCT100=



000
FTUS44 KFWD 311134
TAFACT
TAF
KACT 311134Z 3112/0112 18008KT P6SM SCT250=



000
FTUS44 KFWD 311134
TAFDFW
TAF
KDFW 311134Z 3112/0118 18008KT P6SM SCT100=



000
FTUS44 KFWD 310904 AAA
TAFACT
TAF AMD
KACT 310904Z 3109/0106 18008KT P6SM FEW090 SCT150=



000
FTUS44 KFWD 310904 AAA
TAFFTW
TAF AMD
KFTW 310904Z 3109/0106 18008KT P6SM FEW100 SCT250=



000
FTUS44 KFWD 310904 AAA
TAFDFW
TAF AMD
KDFW 310904Z 3109/0112 18008KT P6SM FEW100 SCT250=



000
FTUS44 KFWD 310520
TAFDFW
TAF
KDFW 310520Z 3106/0112 18008KT P6SM FEW080 SCT250=



000
FTUS44 KFWD 310520
TAFFTW
TAF
KFTW 310520Z 3106/0106 18008KT P6SM FEW080 SCT250=



000
FTUS44 KFWD 310520
TAFFTW
TAF
KFTW 310520Z 3106/0106 18008KT P6SM FEW080 SCT250=



000
FTUS44 KFWD 310520
TAFACT
TAF
KACT 310520Z 3106/0106 18008KT P6SM FEW080 SCT150=



000
FTUS44 KFWD 310520
TAFDFW
TAF
KDFW 310520Z 3106/0112 18008KT P6SM FEW080 SCT250=



000
FTUS44 KFWD 310520
TAFACT
TAF
KACT 310520Z 3106/0106 18008KT P6SM FEW080 SCT150=



000
FTUS44 KFWD 310311 AAA
TAFFTW
TAF AMD
KFTW 310311Z 3103/3124 18007KT P6SM FEW080 SCT150=



000
FTUS44 KFWD 310311 AAA
TAFACT
TAF AMD
KACT 310311Z 3103/3124 17007KT P6SM SCT120 BKN250=



000
FTUS44 KFWD 310311 AAA
TAFDFW
TAF AMD
KDFW 310311Z 3103/0106 18007KT P6SM FEW080 SCT150=



000
FTUS44 KFWD 302320
TAFDFW
TAF
KDFW 302320Z 3100/0106 18007KT P6SM FEW080 SCT150 BKN250=



000
FTUS44 KFWD 302320
TAFFTW
TAF
KFTW 302320Z 3100/3124 18007KT P6SM FEW080 SCT150 BKN250=



000
FTUS44 KFWD 302320
TAFACT
TAF
KACT 302320Z 3100/3124 15003KT P6SM VCSH SCT070 BKN150
     FM310200 17007KT P6SM SCT120 BKN250=



000
FTUS44 KFWD 302320
TAFFTW
TAF
KFTW 302320Z 3100/3124 18007KT P6SM FEW080 SCT150 BKN250=



000
FTUS44 KFWD 302320
TAFDFW
TAF
KDFW 302320Z 3100/0106 18007KT P6SM FEW080 SCT150 BKN250=



000
FTUS44 KFWD 302320
TAFACT
TAF
KACT 302320Z 3100/3124 15003KT P6SM VCSH SCT070 BKN150
     FM310200 17007KT P6SM SCT120 BKN250=



000
FTUS44 KFWD 302104 AAA
TAFDFW
TAF AMD
KDFW 302104Z 3021/3124 27007KT P6SM SCT080 BKN300
     FM310100 18007KT P6SM SCT100=



000
FTUS44 KFWD 302104 AAA
TAFFTW
TAF AMD
KFTW 302104Z 3021/3118 27007KT P6SM SCT080 BKN300
     FM310100 18007KT P6SM SCT100=



000
FTUS44 KFWD 302104 AAA
TAFFTW
TAF AMD
KFTW 302104Z 3021/3118 27007KT P6SM SCT080 BKN300
     FM310100 18007KT P6SM SCT100=



000
FTUS44 KFWD 302104 AAA
TAFACT
TAF AMD
KACT 302104Z 3021/3118 18005KT P6SM VCTS SCT090CB BKN120
     FM310230 17008KT P6SM SCT120 BKN250=



000
FTUS44 KFWD 302104 AAA
TAFDFW
TAF AMD
KDFW 302104Z 3021/3124 27007KT P6SM SCT080 BKN300
     FM310100 18007KT P6SM SCT100=



000
FTUS44 KFWD 301738
TAFACT
TAF
KACT 301738Z 3018/3118 VRB05KT P6SM VCSH SCT100 BKN200
     FM302100 18008KT P6SM VCTS SCT090CB BKN250
     FM310200 17008KT P6SM SCT120 BKN250=



000
FTUS44 KFWD 301738
TAFFTW
TAF
KFTW 301738Z 3018/3118 23012KT P6SM FEW150 BKN300
     FM302100 21009KT P6SM VCTS SCT090CB
     FM310100 17008KT P6SM SCT100=



000
FTUS44 KFWD 301738
TAFDFW
TAF
KDFW 301738Z 3018/3124 23012KT P6SM FEW150 BKN300
     FM302100 21009KT P6SM VCTS SCT090CB
     FM310100 17008KT P6SM SCT100=



000
FTUS44 KFWD 301517 AAA
TAFFTW
TAF AMD
KFTW 301517Z 3015/3112 22008KT P6SM SCT100 BKN250
     FM302100 21008KT P6SM VCTS SCT090CB
     FM310100 17008KT P6SM SCT100=



000
FTUS44 KFWD 301517 AAA
TAFDFW
TAF AMD
KDFW 301517Z 3015/3118 22008KT P6SM SCT100 BKN250
     FM302100 21008KT P6SM VCTS SCT090CB
     FM310100 17008KT P6SM SCT100=



000
FTUS44 KFWD 301517 AAB
TAFACT
TAF AMD
KACT 301517Z 3015/3112 23007KT P6SM VCSH BKN120
     FM301800 18008KT P6SM BKN200
     FM302100 21008KT P6SM VCTS SCT090CB BKN250
     FM310200 17008KT P6SM SCT120 BKN250=



000
FTUS44 KFWD 301408 AAA
TAFACT
TAF AMD
KACT 301408Z 3014/3112 20007KT P6SM VCSH OVC100
      TEMPO 3014/3016 VRB06KT 3SM RA
     FM301800 18008KT P6SM BKN200=



000
FTUS44 KFWD 301408 AAA
TAFACT
TAF AMD
KACT 301408Z 3014/3112 20007KT P6SM VCSH OVC100
      TEMPO 3014/3016 VRB06KT 3SM RA
     FM301800 18008KT P6SM BKN200=



000
FTUS44 KFWD 301131
TAFACT
TAF
KACT 301131Z 3012/3112 20007KT P6SM VCSH OVC100
     FM301600 18008KT P6SM BKN200=



000
FTUS44 KFWD 301131
TAFFTW
TAF
KFTW 301131Z 3012/3112 21008KT P6SM SCT090 BKN150
     FM302100 17010KT P6SM SCT200=



000
FTUS44 KFWD 301131
TAFDFW
TAF
KDFW 301131Z 3012/3118 21008KT P6SM SCT090 BKN150
     FM302100 17010KT P6SM SCT200=



000
FTUS44 KFWD 300848 AAA
TAFACT
TAF AMD
KACT 300848Z 3009/3106 19007KT P6SM VCSH BKN150
     FM301500 18006KT P6SM BKN200=



000
FTUS44 KFWD 300848 AAA
TAFDFW
TAF AMD
KDFW 300848Z 3009/3112 20005KT P6SM SCT090 BKN150
     FM302100 17010KT P6SM SCT200=



000
FTUS44 KFWD 300848 AAA
TAFFTW
TAF AMD
KFTW 300848Z 3009/3106 20005KT P6SM SCT090 BKN150
     FM302100 17010KT P6SM SCT200=



000
FTUS44 KFWD 300520
TAFFTW
TAF
KFTW 300520Z 3006/3106 20005KT P6SM SCT150 BKN250
     FM302100 17010KT P6SM SCT200=



000
FTUS44 KFWD 300520
TAFACT
TAF
KACT 300520Z 3006/3106 19005KT P6SM VCSH BKN150
     FM301500 18006KT P6SM BKN200=



000
FTUS44 KFWD 300520
TAFDFW
TAF
KDFW 300520Z 3006/3112 20005KT P6SM SCT150 BKN250
     FM302100 17010KT P6SM SCT200=



000
FTUS44 KFWD 300520
TAFACT
TAF
KACT 300520Z 3006/3106 19005KT P6SM VCSH BKN150
     FM301500 18006KT P6SM BKN200=



000
FTUS44 KFWD 300318 AAA
TAFACT
TAF AMD
KACT 300318Z 3003/3024 18008KT P6SM SCT150 BKN250
     FM300500 19005KT P6SM VCSH BKN150
     FM301500 18006KT P6SM BKN200=



000
FTUS44 KFWD 300318 AAA
TAFFTW
TAF AMD
KFTW 300318Z 3003/3024 20005KT P6SM BKN150
     FM301900 17010KT P6SM SCT200=



000
FTUS44 KFWD 300318 AAA
TAFDFW
TAF AMD
KDFW 300318Z 3003/3106 20005KT P6SM BKN150
     FM301900 17010KT P6SM SCT200=



000
FTUS44 KFWD 300318 AAA
TAFFTW
TAF AMD
KFTW 300318Z 3003/3024 20005KT P6SM BKN150
     FM301900 17010KT P6SM SCT200=



000
FTUS44 KFWD 300318 AAA
TAFDFW
TAF AMD
KDFW 300318Z 3003/3106 20005KT P6SM BKN150
     FM301900 17010KT P6SM SCT200=



000
FTUS44 KFWD 300318 AAA
TAFACT
TAF AMD
KACT 300318Z 3003/3024 18008KT P6SM SCT150 BKN250
     FM300500 19005KT P6SM VCSH BKN150
     FM301500 18006KT P6SM BKN200=



000
FTUS44 KFWD 292337 CCA
TAFACT
TAF COR
KACT 292337Z 3000/3024 18008KT P6SM SCT150 BKN250
     FM300500 19005KT P6SM VCSH BKN150
     FM301500 18006KT P6SM BKN200=



000
FTUS44 KFWD 292337 CCA
TAFACT
TAF COR
KACT 292337Z 3000/3024 18008KT P6SM SCT150 BKN250
     FM300500 19005KT P6SM VCSH BKN150
     FM301500 18006KT P6SM BKN200=



000
FTUS44 KFWD 292331
TAFDFW
TAF
KDFW 292331Z 3000/3106 18008KT P6SM VCSH BKN100
     FM300200 20005KT P6SM BKN150
     FM301900 17010KT P6SM SCT200=



000
FTUS44 KFWD 292331
TAFACT
TAF
KACT 292331Z 3000/3024 18008KT P6SM SCT150 BKN250=



000
FTUS44 KFWD 292331
TAFFTW
TAF
KFTW 292331Z 3000/3024 23008KT P6SM VCTS BKN100CB
     FM300200 17007KT P6SM BKN150=



000
FTUS44 KFWD 292146 AAB
TAFFTW
TAF AMD
KFTW 292146Z 2922/3018 17009KT P6SM SCT100 BKN150
     FM292300 16008KT P6SM VCTS BKN100CB
     FM300100 17007KT P6SM BKN150=



000
FTUS44 KFWD 292055 AAA
TAFACT
TAF AMD
KACT 292055Z 2921/3018 18008KT P6SM SCT150 BKN250=



000
FTUS44 KFWD 292055 AAA
TAFDFW
TAF AMD
KDFW 292055Z 2921/3024 18009KT P6SM SCT150 BKN250=



000
FTUS44 KFWD 292055 AAA
TAFFTW
TAF AMD
KFTW 292055Z 2921/3018 18009KT P6SM SCT150 BKN250=



000
FTUS44 KFWD 292055 AAA
TAFACT
TAF AMD
KACT 292055Z 2921/3018 18008KT P6SM SCT150 BKN250=



000
FTUS44 KFWD 292055 AAA
TAFDFW
TAF AMD
KDFW 292055Z 2921/3024 18009KT P6SM SCT150 BKN250=



000
FTUS44 KFWD 292055 AAA
TAFFTW
TAF AMD
KFTW 292055Z 2921/3018 18009KT P6SM SCT150 BKN250=



000
FTUS44 KFWD 291739
TAFDFW
TAF
KDFW 291739Z 2918/3024 20010KT P6SM SCT150 BKN250=



000
FTUS44 KFWD 291739
TAFACT
TAF
KACT 291739Z 2918/3018 18010KT P6SM SCT150 BKN250=



000
FTUS44 KFWD 291739
TAFFTW
TAF
KFTW 291739Z 2918/3018 20010KT P6SM SCT150 BKN250=



000
FTUS44 KFWD 291511 AAA
TAFFTW
TAF AMD
KFTW 291511Z 2915/3012 18007KT P6SM BKN150=



000
FTUS44 KFWD 291511 AAA
TAFDFW
TAF AMD
KDFW 291511Z 2915/3018 17006KT P6SM VCSH FEW070 BKN150
     FM291800 18007KT P6SM BKN150
     FM301500 21010KT P6SM SCT250=



000
FTUS44 KFWD 291511 AAA
TAFACT
TAF AMD
KACT 291511Z 2915/3012 21007KT P6SM BKN150
     FM291800 18008KT P6SM VCSH FEW070 BKN120
     FM292200 18007KT P6SM BKN150=



000
FTUS44 KFWD 291129
TAFDFW
TAF
KDFW 291129Z 2912/3018 17006KT P6SM VCSH FEW070 BKN120
     FM291800 18007KT P6SM BKN150
     FM301500 21010KT P6SM SCT250=



000
FTUS44 KFWD 291129
TAFFTW
TAF
KFTW 291129Z 2912/3012 17006KT P6SM VCSH FEW070 BKN120
     FM291800 18007KT P6SM BKN150=



000
FTUS44 KFWD 291129
TAFACT
TAF
KACT 291129Z 2912/3012 19007KT P6SM BKN150
     FM291600 18008KT P6SM VCSH FEW070 BKN120
     FM292200 18007KT P6SM BKN150=



000
FTUS44 KFWD 290902 AAA
TAFFTW
TAF AMD
KFTW 290902Z 2909/3006 18006KT P6SM VCSH BKN120
     FM291800 18007KT P6SM BKN150=



000
FTUS44 KFWD 290902 AAA
TAFACT
TAF AMD
KACT 290902Z 2909/3006 14008KT P6SM FEW200
     FM291200 18008KT P6SM BKN150=



000
FTUS44 KFWD 290902 AAA
TAFDFW
TAF AMD
KDFW 290902Z 2909/3012 18006KT P6SM VCSH BKN120
     FM291800 18007KT P6SM BKN150=



000
FTUS44 KFWD 290902 AAA
TAFACT
TAF AMD
KACT 290902Z 2909/3006 14008KT P6SM FEW200
     FM291200 18008KT P6SM BKN150=



000
FTUS44 KFWD 290902 AAA
TAFDFW
TAF AMD
KDFW 290902Z 2909/3012 18006KT P6SM VCSH BKN120
     FM291800 18007KT P6SM BKN150=



000
FTUS44 KFWD 290902 AAA
TAFFTW
TAF AMD
KFTW 290902Z 2909/3006 18006KT P6SM VCSH BKN120
     FM291800 18007KT P6SM BKN150=



    US Dept of Commerce
    National Oceanic and Atmospheric Administration
    National Weather Service
    1325 East West Highway
    Silver Spring, MD 20910
    Page Author: NWS Internet Services Team
Disclaimer
Information Quality
Credits
Glossary
Privacy Policy
Freedom of Information Act (FOIA)
About Us
Career Opportunities